sensor_id;sensor_type;location;lat;lon;timestamp;pressure;altitude;pressure_sealevel;temperature;humidity
45050;BME280;61798;48.048;-1.928;2023-01-30T00:01:36;102030.94;;;2.38;100.00
45050;BME280;61798;48.048;-1.928;2023-01-30T00:03:49;102017.78;;;2.37;100.00
45050;BME280;61798;48.048;-1.928;2023-01-30T00:05:56;102064.94;;;2.58;100.00
45050;BME280;61798;48.048;-1.928;2023-01-30T00:08:03;102064.63;;;2.62;100.00
45050;BME280;61798;48.048;-1.928;2023-01-30T00:10:11;102044.59;;;2.58;100.00
45050;BME280;61798;48.048;-1.928;2023-01-30T00:12:18;102059.72;;;2.56;100.00
45050;BME280;61798;48.048;-1.928;2023-01-30T00:14:25;102052.41;;;2.60;100.00
45050;BME280;61798;48.048;-1.928;2023-01-30T00:16:32;102039.84;;;2.50;100.00
45050;BME280;61798;48.048;-1.928;2023-01-30T00:18:40;102068.63;;;2.68;100.00
45050;BME280;61798;48.048;-1.928;2023-01-30T00:21:01;102009.75;;;2.38;100.00
45050;BME280;61798;48.048;-1.928;2023-01-30T00:23:11;102048.75;;;2.62;100.00
45050;BME280;61798;48.048;-1.928;2023-01-30T00:25:18;102044.38;;;2.61;100.00
45050;BME280;61798;48.048;-1.928;2023-01-30T00:27:25;102043.31;;;2.64;100.00
45050;BME280;61798;48.048;-1.928;2023-01-30T00:29:32;102018.97;;;2.46;100.00
45050;BME280;61798;48.048;-1.928;2023-01-30T00:31:40;102049.56;;;2.63;100.00
45050;BME280;61798;48.048;-1.928;2023-01-30T00:33:47;102052.13;;;2.64;100.00
45050;BME280;61798;48.048;-1.928;2023-01-30T00:35:55;102061.75;;;2.66;100.00
45050;BME280;61798;48.048;-1.928;2023-01-30T00:38:02;102038.78;;;2.53;100.00
45050;BME280;61798;48.048;-1.928;2023-01-30T00:40:10;102034.53;;;2.50;100.00
45050;BME280;61798;48.048;-1.928;2023-01-30T00:42:18;102053.06;;;2.63;100.00
45050;BME280;61798;48.048;-1.928;2023-01-30T00:44:44;102038.47;;;2.58;100.00
45050;BME280;61798;48.048;-1.928;2023-01-30T00:47:09;102035.69;;;2.59;100.00
45050;BME280;61798;48.048;-1.928;2023-01-30T00:49:17;102033.91;;;2.60;100.00
45050;BME280;61798;48.048;-1.928;2023-01-30T00:51:25;102022.88;;;2.53;100.00
45050;BME280;61798;48.048;-1.928;2023-01-30T00:53:33;102009.00;;;2.36;100.00
45050;BME280;61798;48.048;-1.928;2023-01-30T00:55:41;102021.19;;;2.39;100.00
45050;BME280;61798;48.048;-1.928;2023-01-30T00:57:49;102009.00;;;2.36;100.00
45050;BME280;61798;48.048;-1.928;2023-01-30T00:59:56;102029.66;;;2.44;100.00
45050;BME280;61798;48.048;-1.928;2023-01-30T01:02:03;102001.81;;;2.25;100.00
45050;BME280;61798;48.048;-1.928;2023-01-30T01:04:10;102015.56;;;2.43;100.00
45050;BME280;61798;48.048;-1.928;2023-01-30T01:06:18;102024.13;;;2.47;100.00
45050;BME280;61798;48.048;-1.928;2023-01-30T01:08:25;101996.31;;;2.41;100.00
45050;BME280;61798;48.048;-1.928;2023-01-30T01:10:32;102010.81;;;2.49;100.00
45050;BME280;61798;48.048;-1.928;2023-01-30T01:12:44;102011.66;;;2.49;100.00
45050;BME280;61798;48.048;-1.928;2023-01-30T01:14:51;102019.94;;;2.58;100.00
45050;BME280;61798;48.048;-1.928;2023-01-30T01:16:58;101982.16;;;2.42;100.00
45050;BME280;61798;48.048;-1.928;2023-01-30T01:19:06;102012.94;;;2.57;100.00
45050;BME280;61798;48.048;-1.928;2023-01-30T01:21:12;101987.31;;;2.44;100.00
45050;BME280;61798;48.048;-1.928;2023-01-30T01:23:19;101996.66;;;2.50;100.00
45050;BME280;61798;48.048;-1.928;2023-01-30T01:25:27;101987.53;;;2.54;100.00
45050;BME280;61798;48.048;-1.928;2023-01-30T01:27:34;101979.69;;;2.52;100.00
45050;BME280;61798;48.048;-1.928;2023-01-30T01:29:42;101961.59;;;2.46;100.00
45050;BME280;61798;48.048;-1.928;2023-01-30T01:31:49;101958.50;;;2.39;100.00
45050;BME280;61798;48.048;-1.928;2023-01-30T01:33:56;101960.84;;;2.44;100.00
45050;BME280;61798;48.048;-1.928;2023-01-30T01:36:04;101974.31;;;2.41;100.00
45050;BME280;61798;48.048;-1.928;2023-01-30T01:38:10;101994.94;;;2.62;100.00
45050;BME280;61798;48.048;-1.928;2023-01-30T01:40:19;101996.84;;;2.60;100.00
45050;BME280;61798;48.048;-1.928;2023-01-30T01:42:45;101994.19;;;2.60;100.00
45050;BME280;61798;48.048;-1.928;2023-01-30T01:47:21;102007.88;;;2.67;100.00
45050;BME280;61798;48.048;-1.928;2023-01-30T01:49:33;101980.13;;;2.46;100.00
45050;BME280;61798;48.048;-1.928;2023-01-30T01:52:08;102002.59;;;2.67;100.00
45050;BME280;61798;48.048;-1.928;2023-01-30T01:55:05;101996.44;;;2.53;100.00
45050;BME280;61798;48.048;-1.928;2023-01-30T01:56:49;102012.31;;;2.66;100.00
45050;BME280;61798;48.048;-1.928;2023-01-30T01:59:13;101995.25;;;2.57;100.00
45050;BME280;61798;48.048;-1.928;2023-01-30T02:01:23;102004.69;;;2.61;100.00
45050;BME280;61798;48.048;-1.928;2023-01-30T02:03:33;101999.06;;;2.53;100.00
45050;BME280;61798;48.048;-1.928;2023-01-30T02:05:45;102014.84;;;2.68;100.00
45050;BME280;61798;48.048;-1.928;2023-01-30T02:08:08;101998.13;;;2.54;100.00
45050;BME280;61798;48.048;-1.928;2023-01-30T02:10:23;102013.91;;;2.69;100.00
45050;BME280;61798;48.048;-1.928;2023-01-30T02:12:31;102012.50;;;2.63;100.00
45050;BME280;61798;48.048;-1.928;2023-01-30T02:14:39;102005.53;;;2.62;100.00
45050;BME280;61798;48.048;-1.928;2023-01-30T02:16:46;101998.75;;;2.58;100.00
45050;BME280;61798;48.048;-1.928;2023-01-30T02:18:54;102020.75;;;2.71;100.00
45050;BME280;61798;48.048;-1.928;2023-01-30T02:29:08;102012.81;;;2.71;100.00
45050;BME280;61798;48.048;-1.928;2023-01-30T02:31:49;102012.09;;;2.69;100.00
45050;BME280;61798;48.048;-1.928;2023-01-30T02:37:00;102009.31;;;2.71;100.00
45050;BME280;61798;48.048;-1.928;2023-01-30T02:39:36;102022.25;;;2.75;100.00
45050;BME280;61798;48.048;-1.928;2023-01-30T02:47:09;102020.34;;;2.78;100.00
45050;BME280;61798;48.048;-1.928;2023-01-30T02:49:28;102018.44;;;2.80;100.00
45050;BME280;61798;48.048;-1.928;2023-01-30T02:51:38;102015.78;;;2.80;100.00
45050;BME280;61798;48.048;-1.928;2023-01-30T02:53:47;102011.25;;;2.82;100.00
45050;BME280;61798;48.048;-1.928;2023-01-30T02:55:54;102014.94;;;2.79;100.00
45050;BME280;61798;48.048;-1.928;2023-01-30T02:58:02;102024.38;;;2.83;100.00
45050;BME280;61798;48.048;-1.928;2023-01-30T03:00:12;102006.81;;;2.82;100.00
45050;BME280;61798;48.048;-1.928;2023-01-30T03:02:46;102005.75;;;2.85;100.00
45050;BME280;61798;48.048;-1.928;2023-01-30T03:05:20;102002.00;;;2.88;100.00
45050;BME280;61798;48.048;-1.928;2023-01-30T03:17:36;102003.94;;;2.85;100.00
45050;BME280;61798;48.048;-1.928;2023-01-30T03:19:47;102001.16;;;2.87;100.00
45050;BME280;61798;48.048;-1.928;2023-01-30T03:21:55;101983.38;;;2.76;100.00
45050;BME280;61798;48.048;-1.928;2023-01-30T03:24:03;101964.44;;;2.69;100.00
45050;BME280;61798;48.048;-1.928;2023-01-30T03:26:16;102019.06;;;2.96;100.00
45050;BME280;61798;48.048;-1.928;2023-01-30T03:28:24;102008.47;;;2.96;100.00
45050;BME280;61798;48.048;-1.928;2023-01-30T03:30:32;101964.53;;;2.68;100.00
45050;BME280;61798;48.048;-1.928;2023-01-30T03:32:40;102016.31;;;2.98;100.00
45050;BME280;61798;48.048;-1.928;2023-01-30T03:34:47;101980.00;;;2.74;100.00
45050;BME280;61798;48.048;-1.928;2023-01-30T03:36:54;102022.34;;;3.00;100.00
45050;BME280;61798;48.048;-1.928;2023-01-30T03:39:02;102000.13;;;2.90;100.00
45050;BME280;61798;48.048;-1.928;2023-01-30T03:41:09;102004.44;;;2.91;100.00
45050;BME280;61798;48.048;-1.928;2023-01-30T03:43:17;102015.78;;;3.06;100.00
45050;BME280;61798;48.048;-1.928;2023-01-30T03:45:24;101982.75;;;2.85;100.00
45050;BME280;61798;48.048;-1.928;2023-01-30T03:47:31;101972.06;;;2.74;100.00
45050;BME280;61798;48.048;-1.928;2023-01-30T03:49:39;102004.88;;;2.98;100.00
45050;BME280;61798;48.048;-1.928;2023-01-30T03:51:46;101975.66;;;2.73;100.00
45050;BME280;61798;48.048;-1.928;2023-01-30T03:53:53;102011.03;;;2.98;100.00
45050;BME280;61798;48.048;-1.928;2023-01-30T03:56:00;102020.63;;;2.99;100.00
45050;BME280;61798;48.048;-1.928;2023-01-30T03:58:07;102005.63;;;2.87;100.00
45050;BME280;61798;48.048;-1.928;2023-01-30T04:00:15;101990.06;;;2.82;100.00
45050;BME280;61798;48.048;-1.928;2023-01-30T04:02:21;102020.00;;;3.09;100.00
45050;BME280;61798;48.048;-1.928;2023-01-30T04:04:29;102015.78;;;3.06;100.00
45050;BME280;61798;48.048;-1.928;2023-01-30T04:06:36;101997.66;;;3.00;100.00
45050;BME280;61798;48.048;-1.928;2023-01-30T04:08:43;101995.75;;;3.02;100.00
45050;BME280;61798;48.048;-1.928;2023-01-30T04:10:50;101994.91;;;3.01;100.00
45050;BME280;61798;48.048;-1.928;2023-01-30T04:12:59;101993.63;;;3.07;100.00
45050;BME280;61798;48.048;-1.928;2023-01-30T04:15:07;101971.63;;;2.93;100.00
45050;BME280;61798;48.048;-1.928;2023-01-30T04:17:15;101992.78;;;3.06;100.00
45050;BME280;61798;48.048;-1.928;2023-01-30T04:19:22;101987.69;;;3.03;100.00
45050;BME280;61798;48.048;-1.928;2023-01-30T04:21:28;101995.94;;;3.12;100.00
45050;BME280;61798;48.048;-1.928;2023-01-30T04:23:35;101974.91;;;2.97;100.00
45050;BME280;61798;48.048;-1.928;2023-01-30T04:25:45;102000.28;;;3.13;100.00
45050;BME280;61798;48.048;-1.928;2023-01-30T04:27:52;101980.06;;;2.99;100.00
45050;BME280;61798;48.048;-1.928;2023-01-30T04:30:00;101968.13;;;2.93;100.00
45050;BME280;61798;48.048;-1.928;2023-01-30T04:32:07;101954.34;;;2.88;100.00
45050;BME280;61798;48.048;-1.928;2023-01-30T04:34:14;101967.19;;;2.94;100.00
45050;BME280;61798;48.048;-1.928;2023-01-30T04:36:22;101978.25;;;2.99;100.00
45050;BME280;61798;48.048;-1.928;2023-01-30T04:38:32;101976.59;;;2.98;100.00
45050;BME280;61798;48.048;-1.928;2023-01-30T04:40:38;101986.28;;;3.11;100.00
45050;BME280;61798;48.048;-1.928;2023-01-30T04:42:44;102002.63;;;3.17;100.00
45050;BME280;61798;48.048;-1.928;2023-01-30T04:44:52;101998.03;;;3.20;100.00
45050;BME280;61798;48.048;-1.928;2023-01-30T04:46:57;101964.41;;;2.95;100.00
45050;BME280;61798;48.048;-1.928;2023-01-30T04:49:05;102014.13;;;3.30;100.00
45050;BME280;61798;48.048;-1.928;2023-01-30T04:51:12;101972.88;;;3.01;100.00
45050;BME280;61798;48.048;-1.928;2023-01-30T04:53:23;101962.72;;;2.94;100.00
45050;BME280;61798;48.048;-1.928;2023-01-30T04:55:31;102015.09;;;3.28;100.00
45050;BME280;61798;48.048;-1.928;2023-01-30T04:57:38;102014.78;;;3.20;100.00
45050;BME280;61798;48.048;-1.928;2023-01-30T04:59:45;102013.31;;;3.16;100.00
45050;BME280;61798;48.048;-1.928;2023-01-30T05:01:52;101989.38;;;3.04;100.00
45050;BME280;61798;48.048;-1.928;2023-01-30T05:04:02;102006.84;;;3.20;100.00
45050;BME280;61798;48.048;-1.928;2023-01-30T05:06:10;102012.66;;;3.25;100.00
45050;BME280;61798;48.048;-1.928;2023-01-30T05:08:17;101957.44;;;2.94;100.00
45050;BME280;61798;48.048;-1.928;2023-01-30T05:10:25;101987.03;;;3.13;100.00
45050;BME280;61798;48.048;-1.928;2023-01-30T05:12:31;102017.75;;;3.28;100.00
45050;BME280;61798;48.048;-1.928;2023-01-30T05:14:38;102008.41;;;3.23;100.00
45050;BME280;61798;48.048;-1.928;2023-01-30T05:16:47;102005.56;;;3.26;100.00
45050;BME280;61798;48.048;-1.928;2023-01-30T05:18:55;101994.53;;;3.19;100.00
45050;BME280;61798;48.048;-1.928;2023-01-30T05:21:11;102010.50;;;3.31;100.00
45050;BME280;61798;48.048;-1.928;2023-01-30T05:23:19;102000.47;;;3.23;100.00
45050;BME280;61798;48.048;-1.928;2023-01-30T05:25:26;101984.06;;;3.17;100.00
45050;BME280;61798;48.048;-1.928;2023-01-30T05:27:34;101954.66;;;2.96;100.00
45050;BME280;61798;48.048;-1.928;2023-01-30T05:29:41;101998.16;;;3.18;100.00
45050;BME280;61798;48.048;-1.928;2023-01-30T05:31:48;101985.88;;;3.17;100.00
45050;BME280;61798;48.048;-1.928;2023-01-30T05:33:56;102013.38;;;3.27;100.00
45050;BME280;61798;48.048;-1.928;2023-01-30T05:36:03;102011.59;;;3.28;100.00
45050;BME280;61798;48.048;-1.928;2023-01-30T05:38:11;102001.63;;;3.19;100.00
45050;BME280;61798;48.048;-1.928;2023-01-30T05:40:18;102014.00;;;3.31;100.00
45050;BME280;61798;48.048;-1.928;2023-01-30T05:42:26;102006.81;;;3.33;100.00
45050;BME280;61798;48.048;-1.928;2023-01-30T05:44:33;102004.25;;;3.32;100.00
45050;BME280;61798;48.048;-1.928;2023-01-30T05:46:39;101972.31;;;3.22;100.00
45050;BME280;61798;48.048;-1.928;2023-01-30T05:48:47;101964.34;;;3.22;100.00
45050;BME280;61798;48.048;-1.928;2023-01-30T05:50:56;102003.59;;;3.41;100.00
45050;BME280;61798;48.048;-1.928;2023-01-30T05:53:04;101961.28;;;3.15;100.00
45050;BME280;61798;48.048;-1.928;2023-01-30T05:55:11;102002.13;;;3.37;100.00
45050;BME280;61798;48.048;-1.928;2023-01-30T05:57:19;101953.56;;;3.12;100.00
45050;BME280;61798;48.048;-1.928;2023-01-30T05:59:26;101993.34;;;3.36;100.00
45050;BME280;61798;48.048;-1.928;2023-01-30T06:01:34;101994.41;;;3.34;100.00
45050;BME280;61798;48.048;-1.928;2023-01-30T06:03:41;102005.19;;;3.44;100.00
45050;BME280;61798;48.048;-1.928;2023-01-30T06:05:51;102000.00;;;3.42;100.00
45050;BME280;61798;48.048;-1.928;2023-01-30T06:07:57;101977.47;;;3.23;100.00
45050;BME280;61798;48.048;-1.928;2023-01-30T06:10:03;102001.19;;;3.38;100.00
45050;BME280;61798;48.048;-1.928;2023-01-30T06:12:09;101961.28;;;3.15;100.00
45050;BME280;61798;48.048;-1.928;2023-01-30T06:14:17;102020.13;;;3.45;100.00
45050;BME280;61798;48.048;-1.928;2023-01-30T06:16:24;101975.03;;;3.20;100.00
45050;BME280;61798;48.048;-1.928;2023-01-30T06:18:31;102009.41;;;3.46;100.00
45050;BME280;61798;48.048;-1.928;2023-01-30T06:20:40;101994.41;;;3.34;100.00
45050;BME280;61798;48.048;-1.928;2023-01-30T06:22:51;102037.19;;;3.54;100.00
45050;BME280;61798;48.048;-1.928;2023-01-30T06:24:59;102015.16;;;3.40;100.00
45050;BME280;61798;48.048;-1.928;2023-01-30T06:27:05;101980.34;;;3.20;100.00
45050;BME280;61798;48.048;-1.928;2023-01-30T06:29:12;102019.19;;;3.46;100.00
45050;BME280;61798;48.048;-1.928;2023-01-30T06:31:20;102030.69;;;3.58;100.00
45050;BME280;61798;48.048;-1.928;2023-01-30T06:33:27;101973.03;;;3.24;100.00
45050;BME280;61798;48.048;-1.928;2023-01-30T06:35:33;101990.69;;;3.36;100.00
45050;BME280;61798;48.048;-1.928;2023-01-30T06:37:39;102016.81;;;3.54;100.00
45050;BME280;61798;48.048;-1.928;2023-01-30T06:39:46;101969.59;;;3.35;100.00
45050;BME280;61798;48.048;-1.928;2023-01-30T06:41:54;102018.06;;;3.62;100.00
45050;BME280;61798;48.048;-1.928;2023-01-30T06:44:00;102006.09;;;3.56;100.00
45050;BME280;61798;48.048;-1.928;2023-01-30T06:46:06;102029.28;;;3.65;100.00
45050;BME280;61798;48.048;-1.928;2023-01-30T06:48:12;102023.38;;;3.62;100.00
45050;BME280;61798;48.048;-1.928;2023-01-30T06:50:20;102027.19;;;3.57;100.00
45050;BME280;61798;48.048;-1.928;2023-01-30T06:52:26;102006.56;;;3.49;100.00
45050;BME280;61798;48.048;-1.928;2023-01-30T06:54:32;102015.56;;;3.47;100.00
45050;BME280;61798;48.048;-1.928;2023-01-30T06:56:38;102017.34;;;3.46;100.00
45050;BME280;61798;48.048;-1.928;2023-01-30T06:58:44;102047.63;;;3.68;100.00
45050;BME280;61798;48.048;-1.928;2023-01-30T07:00:50;102042.41;;;3.67;100.00
45050;BME280;61798;48.048;-1.928;2023-01-30T07:02:56;102039.56;;;3.70;100.00
45050;BME280;61798;48.048;-1.928;2023-01-30T07:05:04;102049.31;;;3.69;100.00
45050;BME280;61798;48.048;-1.928;2023-01-30T07:07:11;102040.84;;;3.64;100.00
45050;BME280;61798;48.048;-1.928;2023-01-30T07:09:17;102036.81;;;3.58;100.00
45050;BME280;61798;48.048;-1.928;2023-01-30T07:11:24;102048.09;;;3.62;100.00
45050;BME280;61798;48.048;-1.928;2023-01-30T07:13:30;102028.78;;;3.60;100.00
45050;BME280;61798;48.048;-1.928;2023-01-30T07:15:36;102062.34;;;3.73;100.00
45050;BME280;61798;48.048;-1.928;2023-01-30T07:17:42;102059.06;;;3.69;100.00
45050;BME280;61798;48.048;-1.928;2023-01-30T07:19:49;102074.53;;;3.75;100.00
45050;BME280;61798;48.048;-1.928;2023-01-30T07:21:55;102047.25;;;3.48;100.00
45050;BME280;61798;48.048;-1.928;2023-01-30T07:24:01;102065.66;;;3.63;100.00
45050;BME280;61798;48.048;-1.928;2023-01-30T07:26:06;102078.50;;;3.69;100.00
45050;BME280;61798;48.048;-1.928;2023-01-30T07:28:12;102074.22;;;3.67;100.00
45050;BME280;61798;48.048;-1.928;2023-01-30T07:30:18;102092.75;;;3.80;100.00
45050;BME280;61798;48.048;-1.928;2023-01-30T07:32:25;102097.13;;;3.81;100.00
45050;BME280;61798;48.048;-1.928;2023-01-30T07:34:31;102108.78;;;3.78;100.00
45050;BME280;61798;48.048;-1.928;2023-01-30T07:36:37;102069.00;;;3.54;100.00
45050;BME280;61798;48.048;-1.928;2023-01-30T07:38:43;102073.63;;;3.63;100.00
45050;BME280;61798;48.048;-1.928;2023-01-30T07:40:49;102069.50;;;3.59;100.00
45050;BME280;61798;48.048;-1.928;2023-01-30T07:43:02;102074.66;;;3.74;100.00
45050;BME280;61798;48.048;-1.928;2023-01-30T07:45:09;102082.63;;;3.74;100.00
45050;BME280;61798;48.048;-1.928;2023-01-30T07:47:15;102114.50;;;3.85;100.00
45050;BME280;61798;48.048;-1.928;2023-01-30T07:49:21;102094.69;;;3.78;100.00
45050;BME280;61798;48.048;-1.928;2023-01-30T07:51:27;102070.09;;;3.63;100.00
45050;BME280;61798;48.048;-1.928;2023-01-30T07:53:33;102032.38;;;3.34;100.00
45050;BME280;61798;48.048;-1.928;2023-01-30T07:55:39;102069.38;;;3.61;100.00
45050;BME280;61798;48.048;-1.928;2023-01-30T07:57:45;102121.28;;;3.89;100.00
45050;BME280;61798;48.048;-1.928;2023-01-30T07:59:51;102110.59;;;3.78;100.00
45050;BME280;61798;48.048;-1.928;2023-01-30T08:01:57;102069.50;;;3.59;100.00
45050;BME280;61798;48.048;-1.928;2023-01-30T08:04:03;102119.34;;;3.91;100.00
45050;BME280;61798;48.048;-1.928;2023-01-30T08:06:09;102076.16;;;3.65;100.00
45050;BME280;61798;48.048;-1.928;2023-01-30T08:08:17;102123.81;;;3.91;100.00
45050;BME280;61798;48.048;-1.928;2023-01-30T08:10:23;102129.53;;;3.98;100.00
45050;BME280;61798;48.048;-1.928;2023-01-30T08:12:29;102122.94;;;3.90;100.00
45050;BME280;61798;48.048;-1.928;2023-01-30T08:14:35;102080.38;;;3.67;100.00
45050;BME280;61798;48.048;-1.928;2023-01-30T08:16:41;102136.97;;;3.93;100.00
45050;BME280;61798;48.048;-1.928;2023-01-30T08:18:47;102143.75;;;3.97;100.00
45050;BME280;61798;48.048;-1.928;2023-01-30T08:20:57;102139.91;;;4.01;100.00
45050;BME280;61798;48.048;-1.928;2023-01-30T08:23:03;102133.38;;;3.94;100.00
45050;BME280;61798;48.048;-1.928;2023-01-30T08:25:09;102135.78;;;3.97;100.00
45050;BME280;61798;48.048;-1.928;2023-01-30T08:27:15;102142.34;;;4.04;100.00
45050;BME280;61798;48.048;-1.928;2023-01-30T08:29:21;102129.34;;;3.88;100.00
45050;BME280;61798;48.048;-1.928;2023-01-30T08:31:27;102134.94;;;3.96;100.00
45050;BME280;61798;48.048;-1.928;2023-01-30T08:33:33;102124.03;;;3.88;100.00
45050;BME280;61798;48.048;-1.928;2023-01-30T08:35:39;102139.69;;;4.04;100.00
45050;BME280;61798;48.048;-1.928;2023-01-30T08:37:45;102162.66;;;4.17;100.00
45050;BME280;61798;48.048;-1.928;2023-01-30T08:39:51;102146.25;;;3.98;100.00
45050;BME280;61798;48.048;-1.928;2023-01-30T08:41:57;102134.38;;;4.04;100.00
45050;BME280;61798;48.048;-1.928;2023-01-30T08:44:03;102135.31;;;4.03;100.00
45050;BME280;61798;48.048;-1.928;2023-01-30T08:46:09;102116.59;;;3.93;100.00
45050;BME280;61798;48.048;-1.928;2023-01-30T08:48:15;102158.94;;;4.19;100.00
45050;BME280;61798;48.048;-1.928;2023-01-30T08:50:21;102126.66;;;4.01;100.00
45050;BME280;61798;48.048;-1.928;2023-01-30T08:52:27;102159.78;;;4.20;100.00
45050;BME280;61798;48.048;-1.928;2023-01-30T08:54:33;102132.44;;;4.06;100.00
45050;BME280;61798;48.048;-1.928;2023-01-30T08:56:41;102167.50;;;4.23;100.00
45050;BME280;61798;48.048;-1.928;2023-01-30T08:58:48;102125.78;;;4.00;100.00
45050;BME280;61798;48.048;-1.928;2023-01-30T09:00:54;102133.72;;;4.14;100.00
45050;BME280;61798;48.048;-1.928;2023-01-30T09:03:00;102160.06;;;4.28;100.00
45050;BME280;61798;48.048;-1.928;2023-01-30T09:05:07;102138.16;;;4.13;100.00
45050;BME280;61798;48.048;-1.928;2023-01-30T09:07:15;102133.91;;;4.10;100.00
45050;BME280;61798;48.048;-1.928;2023-01-30T09:09:21;102170.75;;;4.40;100.00
45050;BME280;61798;48.048;-1.928;2023-01-30T09:11:27;102150.16;;;4.30;100.00
45050;BME280;61798;48.048;-1.928;2023-01-30T09:13:33;102181.16;;;4.54;100.00
45050;BME280;61798;48.048;-1.928;2023-01-30T09:15:43;102187.63;;;4.63;100.00
45050;BME280;61798;48.048;-1.928;2023-01-30T09:17:52;102145.38;;;4.36;100.00
45050;BME280;61798;48.048;-1.928;2023-01-30T09:19:59;102167.91;;;4.54;100.00
45050;BME280;61798;48.048;-1.928;2023-01-30T09:22:05;102162.59;;;4.54;100.00
45050;BME280;61798;48.048;-1.928;2023-01-30T09:24:12;102161.25;;;4.49;100.00
45050;BME280;61798;48.048;-1.928;2023-01-30T09:26:18;102139.97;;;4.37;100.00
45050;BME280;61798;48.048;-1.928;2023-01-30T09:28:24;102169.38;;;4.59;100.00
45050;BME280;61798;48.048;-1.928;2023-01-30T09:30:30;102171.91;;;4.60;100.00
45050;BME280;61798;48.048;-1.928;2023-01-30T09:32:36;102152.19;;;4.51;100.00
45050;BME280;61798;48.048;-1.928;2023-01-30T09:34:42;102165.56;;;4.74;100.00
45050;BME280;61798;48.048;-1.928;2023-01-30T09:36:48;102176.34;;;4.84;100.00
45050;BME280;61798;48.048;-1.928;2023-01-30T09:38:54;102172.31;;;4.79;100.00
45050;BME280;61798;48.048;-1.928;2023-01-30T09:45:43;102168.75;;;4.91;100.00
45050;BME280;61798;48.048;-1.928;2023-01-30T09:48:32;102157.41;;;4.89;100.00
45050;BME280;61798;48.048;-1.928;2023-01-30T09:55:32;102174.34;;;5.11;100.00
45050;BME280;61798;48.048;-1.928;2023-01-30T09:57:42;102169.38;;;5.18;100.00
45050;BME280;61798;48.048;-1.928;2023-01-30T10:04:19;102155.66;;;5.24;100.00
45050;BME280;61798;48.048;-1.928;2023-01-30T10:06:28;102148.97;;;5.18;100.00
45050;BME280;61798;48.048;-1.928;2023-01-30T10:10:56;102192.03;;;5.47;100.00
45050;BME280;61798;48.048;-1.928;2023-01-30T10:18:46;102157.94;;;5.52;100.00
45050;BME280;61798;48.048;-1.928;2023-01-30T10:21:19;102107.44;;;5.17;100.00
45050;BME280;61798;48.048;-1.928;2023-01-30T10:26:11;102123.41;;;5.29;100.00
45050;BME280;61798;48.048;-1.928;2023-01-30T10:28:30;102184.78;;;5.84;100.00
45050;BME280;61798;48.048;-1.928;2023-01-30T10:30:37;102139.59;;;5.49;100.00
45050;BME280;61798;48.048;-1.928;2023-01-30T10:33:00;102179.78;;;5.90;100.00
45050;BME280;61798;48.048;-1.928;2023-01-30T10:35:21;102135.22;;;5.59;100.00
45050;BME280;61798;48.048;-1.928;2023-01-30T10:42:25;102175.19;;;6.16;100.00
45050;BME280;61798;48.048;-1.928;2023-01-30T10:44:34;102152.44;;;6.00;100.00
45050;BME280;61798;48.048;-1.928;2023-01-30T10:49:10;102160.03;;;6.28;100.00
45050;BME280;61798;48.048;-1.928;2023-01-30T10:53:37;102163.34;;;6.41;100.00
45050;BME280;61798;48.048;-1.928;2023-01-30T10:56:01;102168.09;;;6.38;100.00
45050;BME280;61798;48.048;-1.928;2023-01-30T10:59:14;102154.59;;;6.51;100.00
45050;BME280;61798;48.048;-1.928;2023-01-30T11:01:00;102152.91;;;6.50;100.00
45050;BME280;61798;48.048;-1.928;2023-01-30T11:03:36;102160.41;;;6.56;100.00
45050;BME280;61798;48.048;-1.928;2023-01-30T11:05:46;102163.72;;;6.70;100.00
45050;BME280;61798;48.048;-1.928;2023-01-30T11:07:59;102163.34;;;6.96;100.00
45050;BME280;61798;48.048;-1.928;2023-01-30T11:10:15;102106.91;;;6.69;100.00
45050;BME280;61798;48.048;-1.928;2023-01-30T11:12:21;102113.28;;;6.78;100.00
45050;BME280;61798;48.048;-1.928;2023-01-30T11:14:28;102112.38;;;6.89;100.00
45050;BME280;61798;48.048;-1.928;2023-01-30T11:17:00;102085.59;;;6.69;100.00
45050;BME280;61798;48.048;-1.928;2023-01-30T11:19:07;102126.28;;;6.93;100.00
45050;BME280;61798;48.048;-1.928;2023-01-30T11:21:35;102093.56;;;6.81;100.00
45050;BME280;61798;48.048;-1.928;2023-01-30T11:23:44;102063.41;;;6.59;100.00
45050;BME280;61798;48.048;-1.928;2023-01-30T11:25:54;102062.34;;;6.50;100.00
45050;BME280;61798;48.048;-1.928;2023-01-30T11:28:04;102110.63;;;6.78;100.00
45050;BME280;61798;48.048;-1.928;2023-01-30T11:30:16;102144.72;;;7.06;100.00
45050;BME280;61798;48.048;-1.928;2023-01-30T11:32:27;102138.81;;;7.02;100.00
45050;BME280;61798;48.048;-1.928;2023-01-30T11:34:33;102127.00;;;6.95;100.00
45050;BME280;61798;48.048;-1.928;2023-01-30T11:36:39;102122.81;;;7.02;100.00
45050;BME280;61798;48.048;-1.928;2023-01-30T11:39:17;102114.81;;;7.02;100.00
45050;BME280;61798;48.048;-1.928;2023-01-30T11:41:25;102122.81;;;7.02;100.00
45050;BME280;61798;48.048;-1.928;2023-01-30T11:43:33;102126.53;;;7.11;100.00
45050;BME280;61798;48.048;-1.928;2023-01-30T11:45:46;102118.47;;;7.01;100.00
45050;BME280;61798;48.048;-1.928;2023-01-30T11:47:56;102093.72;;;6.89;100.00
45050;BME280;61798;48.048;-1.928;2023-01-30T11:50:02;102106.66;;;6.94;100.00
45050;BME280;61798;48.048;-1.928;2023-01-30T11:52:08;102120.56;;;7.29;100.00
45050;BME280;61798;48.048;-1.928;2023-01-30T11:54:29;102047.84;;;6.85;100.00
45050;BME280;61798;48.048;-1.928;2023-01-30T11:56:51;102111.06;;;7.36;100.00
45050;BME280;61798;48.048;-1.928;2023-01-30T11:59:02;102089.97;;;7.33;100.00
45050;BME280;61798;48.048;-1.928;2023-01-30T12:01:10;102075.38;;;7.27;100.00
45050;BME280;61798;48.048;-1.928;2023-01-30T12:03:21;102114.94;;;7.64;100.00
45050;BME280;61798;48.048;-1.928;2023-01-30T12:05:36;102101.44;;;7.55;100.00
45050;BME280;61798;48.048;-1.928;2023-01-30T12:07:49;102088.94;;;7.56;100.00
45050;BME280;61798;48.048;-1.928;2023-01-30T12:09:57;102089.25;;;7.82;100.00
45050;BME280;61798;48.048;-1.928;2023-01-30T12:12:32;102087.81;;;7.58;100.00